sensor_id;sensor_type;location;lat;lon;timestamp;P1;durP1;ratioP1;P2;durP2;ratioP2
61460;SDS011;47325;50.506;4.472;2023-07-31T00:01:48;11.90;;;2.80;;
61460;SDS011;47325;50.506;4.472;2023-07-31T00:07:33;5.40;;;2.20;;
61460;SDS011;47325;50.506;4.472;2023-07-31T00:13:17;6.10;;;2.40;;
61460;SDS011;47325;50.506;4.472;2023-07-31T00:19:01;7.00;;;2.60;;
61460;SDS011;47325;50.506;4.472;2023-07-31T00:24:45;6.20;;;2.40;;
61460;SDS011;47325;50.506;4.472;2023-07-31T00:30:30;7.40;;;2.90;;
61460;SDS011;47325;50.506;4.472;2023-07-31T00:36:14;5.50;;;2.70;;
61460;SDS011;47325;50.506;4.472;2023-07-31T00:41:59;4.90;;;2.60;;
61460;SDS011;47325;50.506;4.472;2023-07-31T00:47:43;4.70;;;2.20;;
61460;SDS011;47325;50.506;4.472;2023-07-31T00:53:27;5.50;;;2.60;;
61460;SDS011;47325;50.506;4.472;2023-07-31T00:59:12;6.50;;;2.60;;
61460;SDS011;47325;50.506;4.472;2023-07-31T01:04:56;5.00;;;2.70;;
61460;SDS011;47325;50.506;4.472;2023-07-31T01:10:42;7.40;;;2.20;;
61460;SDS011;47325;50.506;4.472;2023-07-31T01:16:30;6.20;;;2.50;;
61460;SDS011;47325;50.506;4.472;2023-07-31T01:22:19;6.70;;;2.60;;
61460;SDS011;47325;50.506;4.472;2023-07-31T01:28:05;8.40;;;2.80;;
61460;SDS011;47325;50.506;4.472;2023-07-31T01:33:52;6.00;;;2.80;;
61460;SDS011;47325;50.506;4.472;2023-07-31T01:39:37;5.90;;;2.90;;
61460;SDS011;47325;50.506;4.472;2023-07-31T01:45:21;5.70;;;2.70;;
61460;SDS011;47325;50.506;4.472;2023-07-31T01:51:05;5.00;;;2.50;;
61460;SDS011;47325;50.506;4.472;2023-07-31T01:56:50;5.40;;;2.80;;
61460;SDS011;47325;50.506;4.472;2023-07-31T02:02:34;6.00;;;2.90;;
61460;SDS011;47325;50.506;4.472;2023-07-31T02:08:18;4.70;;;2.60;;
61460;SDS011;47325;50.506;4.472;2023-07-31T02:14:03;4.80;;;2.40;;
61460;SDS011;47325;50.506;4.472;2023-07-31T02:19:47;4.30;;;2.50;;
61460;SDS011;47325;50.506;4.472;2023-07-31T02:25:31;4.10;;;2.40;;
61460;SDS011;47325;50.506;4.472;2023-07-31T02:31:15;4.20;;;2.00;;
61460;SDS011;47325;50.506;4.472;2023-07-31T02:37:05;4.20;;;2.30;;
61460;SDS011;47325;50.506;4.472;2023-07-31T02:42:49;5.70;;;2.40;;
61460;SDS011;47325;50.506;4.472;2023-07-31T02:48:34;4.00;;;2.20;;
61460;SDS011;47325;50.506;4.472;2023-07-31T02:54:18;5.90;;;2.30;;
61460;SDS011;47325;50.506;4.472;2023-07-31T03:00:02;4.90;;;2.30;;
61460;SDS011;47325;50.506;4.472;2023-07-31T03:05:47;4.40;;;2.20;;
61460;SDS011;47325;50.506;4.472;2023-07-31T03:11:31;4.40;;;2.20;;
61460;SDS011;47325;50.506;4.472;2023-07-31T03:17:15;6.20;;;2.40;;
61460;SDS011;47325;50.506;4.472;2023-07-31T03:23:00;5.60;;;2.30;;
61460;SDS011;47325;50.506;4.472;2023-07-31T03:28:44;3.90;;;2.20;;
61460;SDS011;47325;50.506;4.472;2023-07-31T03:34:28;3.20;;;2.20;;
61460;SDS011;47325;50.506;4.472;2023-07-31T03:40:13;5.50;;;2.20;;
61460;SDS011;47325;50.506;4.472;2023-07-31T03:45:57;2.90;;;1.80;;
61460;SDS011;47325;50.506;4.472;2023-07-31T03:51:41;4.80;;;2.30;;
61460;SDS011;47325;50.506;4.472;2023-07-31T03:57:26;3.60;;;1.90;;
61460;SDS011;47325;50.506;4.472;2023-07-31T04:03:10;3.10;;;1.90;;
61460;SDS011;47325;50.506;4.472;2023-07-31T04:08:54;5.00;;;2.30;;
61460;SDS011;47325;50.506;4.472;2023-07-31T04:14:38;4.40;;;2.00;;
61460;SDS011;47325;50.506;4.472;2023-07-31T04:20:23;6.20;;;1.90;;
61460;SDS011;47325;50.506;4.472;2023-07-31T04:26:07;3.10;;;2.00;;
61460;SDS011;47325;50.506;4.472;2023-07-31T04:31:52;4.20;;;2.00;;
61460;SDS011;47325;50.506;4.472;2023-07-31T04:37:36;4.40;;;2.20;;
61460;SDS011;47325;50.506;4.472;2023-07-31T04:43:21;3.20;;;1.90;;
61460;SDS011;47325;50.506;4.472;2023-07-31T04:49:05;4.10;;;1.90;;
61460;SDS011;47325;50.506;4.472;2023-07-31T04:54:50;3.80;;;1.80;;
61460;SDS011;47325;50.506;4.472;2023-07-31T05:00:34;4.50;;;2.10;;
61460;SDS011;47325;50.506;4.472;2023-07-31T05:06:18;4.40;;;2.10;;
61460;SDS011;47325;50.506;4.472;2023-07-31T05:12:04;3.50;;;1.80;;
61460;SDS011;47325;50.506;4.472;2023-07-31T05:17:48;5.50;;;2.30;;
61460;SDS011;47325;50.506;4.472;2023-07-31T05:23:33;4.00;;;2.00;;
61460;SDS011;47325;50.506;4.472;2023-07-31T05:29:18;5.80;;;2.10;;
61460;SDS011;47325;50.506;4.472;2023-07-31T05:35:02;3.90;;;2.00;;
61460;SDS011;47325;50.506;4.472;2023-07-31T05:40:47;4.00;;;2.10;;
61460;SDS011;47325;50.506;4.472;2023-07-31T05:46:31;3.40;;;2.00;;
61460;SDS011;47325;50.506;4.472;2023-07-31T05:52:16;4.60;;;2.00;;
61460;SDS011;47325;50.506;4.472;2023-07-31T05:58:00;3.90;;;1.80;;
61460;SDS011;47325;50.506;4.472;2023-07-31T06:03:44;5.60;;;2.10;;
61460;SDS011;47325;50.506;4.472;2023-07-31T06:09:29;4.40;;;1.90;;
61460;SDS011;47325;50.506;4.472;2023-07-31T06:15:14;5.10;;;2.00;;
61460;SDS011;47325;50.506;4.472;2023-07-31T06:20:58;3.80;;;1.80;;
61460;SDS011;47325;50.506;4.472;2023-07-31T06:26:42;5.10;;;2.10;;
61460;SDS011;47325;50.506;4.472;2023-07-31T06:32:27;2.80;;;1.80;;
61460;SDS011;47325;50.506;4.472;2023-07-31T06:38:12;3.60;;;1.70;;
61460;SDS011;47325;50.506;4.472;2023-07-31T06:43:56;3.70;;;1.80;;
61460;SDS011;47325;50.506;4.472;2023-07-31T06:49:40;3.00;;;1.80;;
61460;SDS011;47325;50.506;4.472;2023-07-31T06:55:25;2.70;;;1.60;;
61460;SDS011;47325;50.506;4.472;2023-07-31T07:01:09;4.80;;;1.90;;
61460;SDS011;47325;50.506;4.472;2023-07-31T07:06:56;3.70;;;1.80;;
61460;SDS011;47325;50.506;4.472;2023-07-31T07:12:40;2.80;;;1.50;;
61460;SDS011;47325;50.506;4.472;2023-07-31T07:18:25;4.20;;;1.90;;
61460;SDS011;47325;50.506;4.472;2023-07-31T07:24:09;4.30;;;1.80;;
61460;SDS011;47325;50.506;4.472;2023-07-31T07:29:53;4.40;;;1.90;;
61460;SDS011;47325;50.506;4.472;2023-07-31T07:35:38;5.40;;;2.00;;
61460;SDS011;47325;50.506;4.472;2023-07-31T07:41:22;4.80;;;1.70;;
61460;SDS011;47325;50.506;4.472;2023-07-31T07:47:07;2.70;;;1.70;;
61460;SDS011;47325;50.506;4.472;2023-07-31T07:52:51;3.10;;;1.80;;
61460;SDS011;47325;50.506;4.472;2023-07-31T07:58:35;4.10;;;1.90;;
61460;SDS011;47325;50.506;4.472;2023-07-31T08:04:20;4.30;;;1.80;;
61460;SDS011;47325;50.506;4.472;2023-07-31T08:10:05;3.40;;;1.60;;
61460;SDS011;47325;50.506;4.472;2023-07-31T08:15:50;4.10;;;1.70;;
61460;SDS011;47325;50.506;4.472;2023-07-31T08:21:34;3.50;;;1.80;;
61460;SDS011;47325;50.506;4.472;2023-07-31T08:27:18;3.90;;;1.80;;
61460;SDS011;47325;50.506;4.472;2023-07-31T08:33:02;3.20;;;1.70;;
61460;SDS011;47325;50.506;4.472;2023-07-31T08:38:47;4.10;;;1.60;;
61460;SDS011;47325;50.506;4.472;2023-07-31T08:44:31;4.10;;;1.70;;
61460;SDS011;47325;50.506;4.472;2023-07-31T08:50:17;2.80;;;1.60;;
61460;SDS011;47325;50.506;4.472;2023-07-31T08:56:02;3.00;;;1.70;;
61460;SDS011;47325;50.506;4.472;2023-07-31T09:01:49;3.00;;;1.60;;
61460;SDS011;47325;50.506;4.472;2023-07-31T09:07:34;3.00;;;1.60;;
61460;SDS011;47325;50.506;4.472;2023-07-31T09:13:18;2.90;;;1.50;;
61460;SDS011;47325;50.506;4.472;2023-07-31T09:19:03;4.10;;;1.60;;
61460;SDS011;47325;50.506;4.472;2023-07-31T09:24:50;3.30;;;1.70;;
61460;SDS011;47325;50.506;4.472;2023-07-31T09:30:42;2.80;;;1.70;;
61460;SDS011;47325;50.506;4.472;2023-07-31T09:36:24;3.90;;;1.80;;
61460;SDS011;47325;50.506;4.472;2023-07-31T09:42:09;3.30;;;1.60;;
61460;SDS011;47325;50.506;4.472;2023-07-31T09:47:54;4.40;;;1.90;;
61460;SDS011;47325;50.506;4.472;2023-07-31T09:53:38;3.00;;;1.70;;
61460;SDS011;47325;50.506;4.472;2023-07-31T09:59:23;3.40;;;1.70;;
61460;SDS011;47325;50.506;4.472;2023-07-31T10:05:08;3.80;;;1.60;;
61460;SDS011;47325;50.506;4.472;2023-07-31T10:10:52;4.70;;;1.80;;
61460;SDS011;47325;50.506;4.472;2023-07-31T10:16:37;3.00;;;1.90;;
61460;SDS011;47325;50.506;4.472;2023-07-31T10:22:23;3.40;;;2.00;;
61460;SDS011;47325;50.506;4.472;2023-07-31T10:28:08;3.70;;;1.80;;
61460;SDS011;47325;50.506;4.472;2023-07-31T10:33:54;3.50;;;1.90;;
61460;SDS011;47325;50.506;4.472;2023-07-31T10:39:41;4.20;;;2.00;;
61460;SDS011;47325;50.506;4.472;2023-07-31T10:45:30;3.60;;;2.10;;
61460;SDS011;47325;50.506;4.472;2023-07-31T10:51:15;2.90;;;1.80;;
61460;SDS011;47325;50.506;4.472;2023-07-31T10:56:59;3.30;;;1.90;;
61460;SDS011;47325;50.506;4.472;2023-07-31T11:02:44;3.30;;;1.90;;
61460;SDS011;47325;50.506;4.472;2023-07-31T11:08:34;3.40;;;2.00;;
61460;SDS011;47325;50.506;4.472;2023-07-31T11:14:18;4.30;;;2.00;;
61460;SDS011;47325;50.506;4.472;2023-07-31T11:20:03;3.80;;;2.20;;
61460;SDS011;47325;50.506;4.472;2023-07-31T11:25:47;3.60;;;2.10;;
61460;SDS011;47325;50.506;4.472;2023-07-31T11:31:32;4.70;;;2.00;;
61460;SDS011;47325;50.506;4.472;2023-07-31T11:37:22;4.30;;;2.10;;
61460;SDS011;47325;50.506;4.472;2023-07-31T11:43:08;4.50;;;2.20;;
61460;SDS011;47325;50.506;4.472;2023-07-31T11:48:57;5.50;;;2.00;;
61460;SDS011;47325;50.506;4.472;2023-07-31T11:54:42;5.50;;;2.30;;
61460;SDS011;47325;50.506;4.472;2023-07-31T12:00:27;5.50;;;2.20;;
61460;SDS011;47325;50.506;4.472;2023-07-31T12:06:11;5.10;;;2.40;;
61460;SDS011;47325;50.506;4.472;2023-07-31T12:11:56;3.40;;;2.20;;
61460;SDS011;47325;50.506;4.472;2023-07-31T12:17:40;3.90;;;2.30;;
61460;SDS011;47325;50.506;4.472;2023-07-31T12:23:25;3.80;;;2.30;;
61460;SDS011;47325;50.506;4.472;2023-07-31T12:29:10;5.00;;;2.30;;
61460;SDS011;47325;50.506;4.472;2023-07-31T12:34:54;5.40;;;2.30;;
61460;SDS011;47325;50.506;4.472;2023-07-31T12:40:40;4.80;;;2.40;;
61460;SDS011;47325;50.506;4.472;2023-07-31T12:46:24;4.20;;;2.30;;
61460;SDS011;47325;50.506;4.472;2023-07-31T12:52:09;5.00;;;2.40;;
61460;SDS011;47325;50.506;4.472;2023-07-31T12:57:53;4.90;;;2.50;;
61460;SDS011;47325;50.506;4.472;2023-07-31T13:03:39;5.70;;;2.70;;
61460;SDS011;47325;50.506;4.472;2023-07-31T13:09:24;4.40;;;2.40;;
61460;SDS011;47325;50.506;4.472;2023-07-31T13:15:11;5.80;;;2.40;;
61460;SDS011;47325;50.506;4.472;2023-07-31T13:20:56;5.60;;;2.40;;
61460;SDS011;47325;50.506;4.472;2023-07-31T13:26:41;4.80;;;2.30;;
61460;SDS011;47325;50.506;4.472;2023-07-31T13:32:26;4.40;;;2.10;;
61460;SDS011;47325;50.506;4.472;2023-07-31T13:38:10;4.60;;;2.20;;
61460;SDS011;47325;50.506;4.472;2023-07-31T13:43:55;3.20;;;2.00;;
61460;SDS011;47325;50.506;4.472;2023-07-31T13:49:39;3.60;;;1.80;;
61460;SDS011;47325;50.506;4.472;2023-07-31T13:55:23;3.90;;;2.00;;
61460;SDS011;47325;50.506;4.472;2023-07-31T14:01:07;3.10;;;2.00;;
61460;SDS011;47325;50.506;4.472;2023-07-31T14:06:52;2.90;;;1.90;;
61460;SDS011;47325;50.506;4.472;2023-07-31T14:12:36;3.20;;;2.10;;
61460;SDS011;47325;50.506;4.472;2023-07-31T14:18:26;3.40;;;1.80;;
61460;SDS011;47325;50.506;4.472;2023-07-31T14:24:11;3.30;;;1.80;;
61460;SDS011;47325;50.506;4.472;2023-07-31T14:29:57;4.10;;;1.80;;
61460;SDS011;47325;50.506;4.472;2023-07-31T14:35:44;3.10;;;1.70;;
61460;SDS011;47325;50.506;4.472;2023-07-31T14:41:28;3.30;;;1.60;;
61460;SDS011;47325;50.506;4.472;2023-07-31T14:47:12;2.50;;;1.60;;
61460;SDS011;47325;50.506;4.472;2023-07-31T14:52:56;2.90;;;1.80;;
61460;SDS011;47325;50.506;4.472;2023-07-31T14:58:41;3.40;;;1.60;;
61460;SDS011;47325;50.506;4.472;2023-07-31T15:04:25;3.10;;;1.70;;
61460;SDS011;47325;50.506;4.472;2023-07-31T15:10:10;1.90;;;1.40;;
61460;SDS011;47325;50.506;4.472;2023-07-31T15:15:54;3.80;;;1.50;;
61460;SDS011;47325;50.506;4.472;2023-07-31T15:21:39;2.10;;;1.40;;
61460;SDS011;47325;50.506;4.472;2023-07-31T15:27:23;2.60;;;1.40;;
61460;SDS011;47325;50.506;4.472;2023-07-31T15:33:08;2.60;;;1.50;;
61460;SDS011;47325;50.506;4.472;2023-07-31T15:38:52;2.50;;;1.40;;
61460;SDS011;47325;50.506;4.472;2023-07-31T15:44:37;2.70;;;1.40;;
61460;SDS011;47325;50.506;4.472;2023-07-31T15:50:21;2.40;;;1.40;;
61460;SDS011;47325;50.506;4.472;2023-07-31T15:56:05;2.20;;;1.50;;
61460;SDS011;47325;50.506;4.472;2023-07-31T16:01:50;2.10;;;1.30;;
61460;SDS011;47325;50.506;4.472;2023-07-31T16:07:35;2.30;;;1.20;;
61460;SDS011;47325;50.506;4.472;2023-07-31T16:13:20;1.50;;;1.00;;
61460;SDS011;47325;50.506;4.472;2023-07-31T16:19:04;1.70;;;1.00;;
61460;SDS011;47325;50.506;4.472;2023-07-31T16:24:49;3.00;;;1.20;;
61460;SDS011;47325;50.506;4.472;2023-07-31T16:30:33;2.10;;;1.20;;
61460;SDS011;47325;50.506;4.472;2023-07-31T16:36:17;1.40;;;1.00;;
61460;SDS011;47325;50.506;4.472;2023-07-31T16:42:02;2.10;;;1.30;;
61460;SDS011;47325;50.506;4.472;2023-07-31T16:47:46;2.90;;;1.30;;
61460;SDS011;47325;50.506;4.472;2023-07-31T16:53:33;2.10;;;1.30;;
61460;SDS011;47325;50.506;4.472;2023-07-31T16:59:18;4.20;;;1.50;;
61460;SDS011;47325;50.506;4.472;2023-07-31T17:05:05;2.90;;;1.40;;
61460;SDS011;47325;50.506;4.472;2023-07-31T17:10:50;1.80;;;1.30;;
61460;SDS011;47325;50.506;4.472;2023-07-31T17:16:37;2.30;;;1.10;;
61460;SDS011;47325;50.506;4.472;2023-07-31T17:22:22;3.10;;;1.40;;
61460;SDS011;47325;50.506;4.472;2023-07-31T17:28:26;1.70;;;1.20;;
61460;SDS011;47325;50.506;4.472;2023-07-31T17:34:11;2.70;;;1.20;;
61460;SDS011;47325;50.506;4.472;2023-07-31T17:39:56;1.90;;;1.20;;
61460;SDS011;47325;50.506;4.472;2023-07-31T17:45:40;2.10;;;1.20;;
61460;SDS011;47325;50.506;4.472;2023-07-31T17:51:25;2.00;;;1.10;;
61460;SDS011;47325;50.506;4.472;2023-07-31T17:57:09;2.80;;;1.10;;
61460;SDS011;47325;50.506;4.472;2023-07-31T18:02:54;1.60;;;1.20;;
61460;SDS011;47325;50.506;4.472;2023-07-31T18:08:38;2.40;;;1.10;;
61460;SDS011;47325;50.506;4.472;2023-07-31T18:14:23;2.80;;;1.60;;
61460;SDS011;47325;50.506;4.472;2023-07-31T18:20:08;2.80;;;1.30;;
61460;SDS011;47325;50.506;4.472;2023-07-31T18:25:52;2.10;;;1.30;;
61460;SDS011;47325;50.506;4.472;2023-07-31T18:31:37;2.90;;;1.20;;
61460;SDS011;47325;50.506;4.472;2023-07-31T18:37:22;2.10;;;1.20;;
61460;SDS011;47325;50.506;4.472;2023-07-31T18:43:07;3.20;;;1.30;;
61460;SDS011;47325;50.506;4.472;2023-07-31T18:48:51;2.40;;;1.10;;
61460;SDS011;47325;50.506;4.472;2023-07-31T18:54:36;1.90;;;1.10;;
61460;SDS011;47325;50.506;4.472;2023-07-31T19:00:20;1.50;;;1.00;;
61460;SDS011;47325;50.506;4.472;2023-07-31T19:06:04;2.10;;;1.20;;
61460;SDS011;47325;50.506;4.472;2023-07-31T19:11:49;2.10;;;1.10;;
61460;SDS011;47325;50.506;4.472;2023-07-31T19:17:34;2.80;;;1.20;;
61460;SDS011;47325;50.506;4.472;2023-07-31T19:23:19;2.60;;;1.10;;
61460;SDS011;47325;50.506;4.472;2023-07-31T19:29:03;1.30;;;0.90;;
61460;SDS011;47325;50.506;4.472;2023-07-31T19:34:48;1.80;;;1.10;;
61460;SDS011;47325;50.506;4.472;2023-07-31T19:40:32;1.60;;;1.10;;
61460;SDS011;47325;50.506;4.472;2023-07-31T19:46:17;2.30;;;1.10;;
61460;SDS011;47325;50.506;4.472;2023-07-31T19:52:01;2.50;;;1.10;;
61460;SDS011;47325;50.506;4.472;2023-07-31T19:57:46;1.90;;;1.10;;
61460;SDS011;47325;50.506;4.472;2023-07-31T20:03:30;3.20;;;1.00;;
61460;SDS011;47325;50.506;4.472;2023-07-31T20:09:15;2.20;;;1.00;;
61460;SDS011;47325;50.506;4.472;2023-07-31T20:14:59;2.40;;;1.10;;
61460;SDS011;47325;50.506;4.472;2023-07-31T20:20:44;2.00;;;1.10;;
61460;SDS011;47325;50.506;4.472;2023-07-31T20:26:29;2.10;;;1.00;;
61460;SDS011;47325;50.506;4.472;2023-07-31T20:32:13;2.30;;;0.90;;
61460;SDS011;47325;50.506;4.472;2023-07-31T20:37:57;1.30;;;0.90;;
61460;SDS011;47325;50.506;4.472;2023-07-31T20:43:42;1.40;;;0.70;;
61460;SDS011;47325;50.506;4.472;2023-07-31T20:49:26;1.20;;;0.80;;
61460;SDS011;47325;50.506;4.472;2023-07-31T20:55:11;1.40;;;0.80;;
61460;SDS011;47325;50.506;4.472;2023-07-31T21:00:55;1.30;;;0.90;;
61460;SDS011;47325;50.506;4.472;2023-07-31T21:06:40;1.50;;;0.90;;
61460;SDS011;47325;50.506;4.472;2023-07-31T21:12:25;2.10;;;0.70;;
61460;SDS011;47325;50.506;4.472;2023-07-31T21:18:09;2.00;;;0.80;;
61460;SDS011;47325;50.506;4.472;2023-07-31T21:23:55;1.10;;;0.70;;
61460;SDS011;47325;50.506;4.472;2023-07-31T21:29:39;1.90;;;0.70;;
61460;SDS011;47325;50.506;4.472;2023-07-31T21:35:24;0.90;;;0.60;;
61460;SDS011;47325;50.506;4.472;2023-07-31T21:41:08;1.10;;;0.70;;
61460;SDS011;47325;50.506;4.472;2023-07-31T21:46:53;1.60;;;0.70;;
61460;SDS011;47325;50.506;4.472;2023-07-31T21:52:38;1.10;;;0.60;;
61460;SDS011;47325;50.506;4.472;2023-07-31T21:58:22;1.80;;;0.80;;
61460;SDS011;47325;50.506;4.472;2023-07-31T22:04:06;1.50;;;0.60;;
61460;SDS011;47325;50.506;4.472;2023-07-31T22:09:51;1.80;;;0.50;;
61460;SDS011;47325;50.506;4.472;2023-07-31T22:15:35;1.40;;;0.50;;
61460;SDS011;47325;50.506;4.472;2023-07-31T22:21:20;1.30;;;0.60;;
61460;SDS011;47325;50.506;4.472;2023-07-31T22:27:04;2.80;;;0.50;;
61460;SDS011;47325;50.506;4.472;2023-07-31T22:32:49;1.00;;;0.60;;
61460;SDS011;47325;50.506;4.472;2023-07-31T22:38:33;1.60;;;0.50;;
61460;SDS011;47325;50.506;4.472;2023-07-31T22:44:17;2.10;;;0.90;;
61460;SDS011;47325;50.506;4.472;2023-07-31T22:50:02;2.40;;;0.60;;
61460;SDS011;47325;50.506;4.472;2023-07-31T22:55:46;1.00;;;0.50;;
61460;SDS011;47325;50.506;4.472;2023-07-31T23:01:31;1.70;;;0.40;;
61460;SDS011;47325;50.506;4.472;2023-07-31T23:07:15;3.40;;;0.40;;
61460;SDS011;47325;50.506;4.472;2023-07-31T23:12:59;1.40;;;0.30;;
61460;SDS011;47325;50.506;4.472;2023-07-31T23:18:44;1.00;;;0.30;;
61460;SDS011;47325;50.506;4.472;2023-07-31T23:24:28;1.50;;;0.40;;
61460;SDS011;47325;50.506;4.472;2023-07-31T23:30:13;0.90;;;0.40;;
61460;SDS011;47325;50.506;4.472;2023-07-31T23:35:57;0.50;;;0.20;;
61460;SDS011;47325;50.506;4.472;2023-07-31T23:41:41;1.50;;;0.30;;
61460;SDS011;47325;50.506;4.472;2023-07-31T23:47:25;0.80;;;0.30;;
61460;SDS011;47325;50.506;4.472;2023-07-31T23:53:10;0.40;;;0.20;;
61460;SDS011;47325;50.506;4.472;2023-07-31T23:58:54;0.50;;;0.20;;
